Time;durP1;ratioP1;P1;durP2;ratioP2;P2;SDS_P1;SDS_P2;PMS_P1;PMS_P2;Temp;Humidity;BMP_temperature;BMP_pressure;BME280_temperature;BME280_humidity;BME280_pressure;Samples;Min_cycle;Max_cycle;Signal;HPM_P1;HPM_P2
2022/11/11 00:07:59;;;;;;;0.20;0.00;;;15.00;99.90;;;;;;25535013;23;20401;-68
2022/11/11 00:28:26;;;;;;;0.20;0.10;;;15.00;99.90;;;;;;25532057;23;20405;-68
2022/11/11 00:38:46;;;;;;;0.20;0.00;;;14.70;99.90;;;;;;25535087;23;20384;-69
2022/11/11 00:59:13;;;;;;;0.20;0.10;;;14.70;99.90;;;;;;25541328;23;20368;-69
2022/11/11 01:09:17;;;;;;;0.20;0.10;;;14.90;99.90;;;;;;25516120;23;20381;-70
2022/11/11 01:19:22;;;;;;;0.20;0.00;;;14.80;99.90;;;;;;25541724;23;20401;-69
2022/11/11 01:29:26;;;;;;;0.20;0.10;;;14.90;99.90;;;;;;25513856;23;20473;-69
2022/11/11 01:39:31;;;;;;;0.20;0.00;;;14.80;99.90;;;;;;25541322;23;20973;-70
2022/11/11 01:49:41;;;;;;;0.20;0.10;;;14.50;99.90;;;;;;25539307;23;20385;-69
2022/11/11 01:59:50;;;;;;;0.20;0.03;;;14.60;99.90;;;;;;25513656;23;20373;-69
2022/11/11 02:09:56;;;;;;;0.20;0.10;;;15.30;99.90;;;;;;25538535;23;20477;-69
2022/11/11 02:20:02;;;;;;;0.20;0.10;;;15.40;99.90;;;;;;25537878;23;20401;-68
2022/11/11 02:30:14;;;;;;;0.20;0.10;;;15.10;99.90;;;;;;25538720;23;20377;-69
2022/11/11 02:40:20;;;;;;;0.20;0.00;;;14.90;99.90;;;;;;25512505;23;20436;-69
2022/11/11 02:50:25;;;;;;;0.20;0.00;;;14.70;99.90;;;;;;25537862;23;20378;-69
2022/11/11 03:00:29;;;;;;;0.20;0.10;;;14.50;99.90;;;;;;25536637;23;20380;-68
2022/11/11 03:10:35;;;;;;;0.20;0.10;;;14.40;99.90;;;;;;25537013;23;20444;-69
2022/11/11 03:31:01;;;;;;;0.20;0.10;;;14.40;99.90;;;;;;25536471;23;20374;-69
2022/11/11 03:41:07;;;;;;;0.20;0.10;;;14.70;99.90;;;;;;25511749;23;20428;-69
2022/11/11 03:51:12;;;;;;;0.20;0.10;;;14.50;99.90;;;;;;25507491;23;20432;-69
2022/11/11 04:11:38;;;;;;;0.20;0.10;;;14.70;99.90;;;;;;25535108;23;20397;-70
2022/11/11 04:21:44;;;;;;;0.20;0.00;;;14.80;99.90;;;;;;25509241;23;20392;-69
2022/11/11 04:42:07;;;;;;;0.20;0.10;;;14.80;99.90;;;;;;25508780;23;20377;-69
2022/11/11 05:25:24;;;;;;;0.20;0.00;;;14.20;99.90;;;;;;25505747;23;20404;-70
2022/11/11 05:33:51;;;;;;;0.20;0.10;;;14.10;99.90;;;;;;25532432;23;20373;-69
2022/11/11 05:43:54;;;;;;;0.20;0.10;;;14.00;99.90;;;;;;25512118;23;21268;-69
2022/11/11 05:54:00;;;;;;;0.20;0.10;;;14.00;99.90;;;;;;25538030;23;20369;-69
2022/11/11 06:04:04;;;;;;;0.20;0.10;;;14.20;99.90;;;;;;25537467;23;20369;-69
2022/11/11 06:14:09;;;;;;;0.20;0.10;;;14.20;99.90;;;;;;25536216;23;20369;-69
2022/11/11 06:24:13;;;;;;;0.20;0.10;;;14.40;99.90;;;;;;25538267;23;20381;-68
2022/11/11 06:34:18;;;;;;;0.20;0.10;;;14.40;99.90;;;;;;25536092;23;20386;-69
2022/11/11 06:44:22;;;;;;;0.20;0.10;;;14.60;99.90;;;;;;25509377;23;20381;-68
2022/11/11 06:54:27;;;;;;;0.20;0.10;;;14.90;99.90;;;;;;25526389;23;20377;-69
2022/11/11 07:04:31;;;;;;;0.20;0.10;;;15.00;99.90;;;;;;25502094;23;20396;-70
2022/11/11 07:14:36;;;;;;;0.20;0.03;;;15.30;99.90;;;;;;25532182;23;20377;-69
2022/11/11 07:24:40;;;;;;;0.20;0.00;;;15.50;99.90;;;;;;25532996;23;20392;-70
2022/11/11 07:34:45;;;;;;;0.20;0.10;;;15.50;99.90;;;;;;25533964;23;20373;-69
2022/11/11 07:44:49;;;;;;;0.20;0.00;;;15.60;99.90;;;;;;25531210;23;20392;-69
2022/11/11 07:54:54;;;;;;;0.20;0.10;;;16.00;99.90;;;;;;25531334;23;20365;-69
2022/11/11 08:04:58;;;;;;;0.20;0.00;;;16.80;99.90;;;;;;25525321;23;20455;-71
2022/11/11 08:15:03;;;;;;;0.20;0.00;;;17.30;99.90;;;;;;25528656;23;20369;-68
2022/11/11 08:25:13;;;;;;;0.20;0.00;;;17.60;99.90;;;;;;25530103;23;20763;-70
2022/11/11 08:35:18;;;;;;;0.20;0.00;;;17.90;99.90;;;;;;25504906;23;20365;-69
2022/11/11 08:45:22;;;;;;;0.20;0.10;;;18.30;99.90;;;;;;25531866;23;20385;-70
2022/11/11 08:55:28;;;;;;;0.20;0.07;;;19.10;99.90;;;;;;25503001;23;20372;-69
2022/11/11 09:05:32;;;;;;;0.20;0.00;;;20.00;99.90;;;;;;25505655;23;20388;-69
2022/11/11 09:15:38;;;;;;;0.20;0.00;;;20.40;99.90;;;;;;25532557;23;20376;-70
2022/11/11 09:25:43;;;;;;;0.20;0.00;;;20.50;99.90;;;;;;25538536;23;20377;-69
2022/11/11 09:35:48;;;;;;;0.20;0.00;;;20.70;99.90;;;;;;25539533;23;20373;-69
2022/11/11 09:46:05;;;;;;;0.20;0.10;;;20.90;99.90;;;;;;25539101;23;20396;-69
2022/11/11 09:56:14;;;;;;;0.20;0.00;;;20.70;99.90;;;;;;25535915;23;20380;-70
2022/11/11 10:06:35;;;;;;;0.20;0.00;;;20.40;99.90;;;;;;25535378;23;20770;-70
2022/11/11 10:16:54;;;;;;;0.20;0.00;;;21.00;99.90;;;;;;25532860;23;20489;-68
2022/11/11 10:27:02;;;;;;;0.20;0.00;;;21.80;99.90;;;;;;25533887;23;20381;-71
2022/11/11 10:37:18;;;;;;;0.20;0.10;;;22.70;99.90;;;;;;25535405;23;20373;-72
2022/11/11 10:47:35;;;;;;;0.20;0.10;;;22.80;99.90;;;;;;25534024;23;20400;-70
2022/11/11 10:57:46;;;;;;;0.20;0.10;;;23.30;99.90;;;;;;25535567;23;20393;-70
2022/11/11 11:07:55;;;;;;;0.20;0.10;;;23.90;99.90;;;;;;25536576;23;20860;-70
2022/11/11 11:18:05;;;;;;;0.20;0.00;;;24.30;99.90;;;;;;25533782;23;20373;-70
2022/11/11 11:28:11;;;;;;;0.20;0.00;;;24.50;99.90;;;;;;25531986;23;20388;-69
2022/11/11 11:38:19;;;;;;;0.20;0.00;;;24.70;99.90;;;;;;25505360;23;20370;-70
2022/11/11 11:48:35;;;;;;;0.20;0.00;;;24.40;99.90;;;;;;25529995;23;20411;-71
2022/11/11 11:58:57;;;;;;;0.20;0.00;;;24.50;99.90;;;;;;25483598;23;20369;-70
2022/11/11 12:09:12;;;;;;;0.20;0.00;;;24.70;99.90;;;;;;25504991;23;20392;-71
2022/11/11 12:19:37;;;;;;;0.20;0.00;;;24.40;99.90;;;;;;25531194;23;20434;-68
2022/11/11 12:29:57;;;;;;;0.20;0.00;;;24.00;99.90;;;;;;25530165;23;20365;-70
2022/11/11 12:40:15;;;;;;;0.20;0.00;;;23.20;99.90;;;;;;25528367;23;20369;-70
2022/11/11 12:50:24;;;;;;;0.20;0.00;;;22.80;99.90;;;;;;25505260;23;20392;-69
2022/11/11 13:00:31;;;;;;;0.20;0.00;;;22.90;99.90;;;;;;25512369;23;20387;-70
2022/11/11 13:10:43;;;;;;;0.20;0.00;;;22.70;99.90;;;;;;25534968;23;20385;-67
2022/11/11 13:20:55;;;;;;;0.20;0.10;;;22.60;99.90;;;;;;25534408;23;20373;-70
2022/11/11 13:31:15;;;;;;;0.20;0.00;;;22.80;99.90;;;;;;25532031;23;20377;-70
2022/11/11 13:41:28;;;;;;;0.20;0.00;;;23.30;99.90;;;;;;25518481;23;20424;-73
2022/11/11 13:51:37;;;;;;;0.20;0.00;;;23.50;99.90;;;;;;25532962;23;20448;-71
2022/11/11 14:01:42;;;;;;;0.20;0.00;;;24.50;99.90;;;;;;25510106;23;20508;-71
2022/11/11 14:11:46;;;;;;;0.20;0.00;;;25.00;99.90;;;;;;25511441;23;20445;-70
2022/11/11 14:21:54;;;;;;;0.20;0.00;;;24.40;99.90;;;;;;25535944;23;20369;-69
2022/11/11 14:32:22;;;;;;;0.20;0.00;;;26.00;99.90;;;;;;25506657;23;20401;-70
2022/11/11 14:42:47;;;;;;;0.20;0.00;;;25.40;99.90;;;;;;25509302;23;20369;-69
2022/11/11 14:52:52;;;;;;;0.20;0.00;;;24.90;99.90;;;;;;25533876;23;20365;-70
2022/11/11 15:03:03;;;;;;;0.20;0.00;;;25.90;99.90;;;;;;25529355;23;20438;-71
2022/11/11 15:13:49;;;;;;;0.20;0.00;;;24.60;99.90;;;;;;25504947;23;20377;-70
2022/11/11 15:24:04;;;;;;;0.20;0.00;;;23.20;99.90;;;;;;25527579;23;20401;-70
2022/11/11 15:34:24;;;;;;;0.20;0.00;;;22.90;99.90;;;;;;25502412;23;20376;-69
2022/11/11 15:44:33;;;;;;;0.20;0.00;;;22.80;99.90;;;;;;25498457;23;20480;-70
2022/11/11 15:54:39;;;;;;;0.20;0.03;;;22.30;99.90;;;;;;25527531;23;20364;-71
2022/11/11 16:04:50;;;;;;;0.20;0.00;;;21.90;99.90;;;;;;25526251;23;20384;-71
2022/11/11 16:15:01;;;;;;;0.20;0.00;;;21.60;99.90;;;;;;25522672;23;20366;-69
2022/11/11 16:25:15;;;;;;;0.20;0.00;;;21.30;99.90;;;;;;25496950;23;20400;-69
2022/11/11 16:35:25;;;;;;;0.20;0.00;;;21.00;99.90;;;;;;25496456;23;20366;-70
2022/11/11 16:45:30;;;;;;;0.20;0.00;;;20.70;99.90;;;;;;25521268;23;20384;-69
2022/11/11 16:55:37;;;;;;;0.20;0.00;;;20.60;99.90;;;;;;25527893;23;20372;-70
2022/11/11 17:05:54;;;;;;;0.20;0.00;;;20.50;99.90;;;;;;25528010;23;20381;-71
2022/11/11 17:16:02;;;;;;;0.20;0.00;;;20.40;99.90;;;;;;25477058;23;20432;-73
2022/11/11 17:26:08;;;;;;;0.20;0.00;;;20.30;99.90;;;;;;25526680;23;20381;-70
2022/11/11 17:36:11;;;;;;;0.20;0.00;;;20.10;99.90;;;;;;25528535;23;20370;-69
2022/11/11 17:46:16;;;;;;;0.20;0.00;;;20.00;99.90;;;;;;25506762;23;20385;-71
2022/11/11 17:56:21;;;;;;;0.20;0.00;;;20.00;99.90;;;;;;25478467;23;20376;-68
2022/11/11 18:06:26;;;;;;;0.20;0.00;;;20.00;99.90;;;;;;25527126;23;20480;-70
2022/11/11 18:16:30;;;;;;;0.20;0.00;;;19.90;99.90;;;;;;25500293;23;20384;-69
2022/11/11 18:26:35;;;;;;;0.20;0.00;;;19.70;99.90;;;;;;25504477;23;20409;-68
2022/11/11 18:36:39;;;;;;;0.20;0.00;;;19.70;99.90;;;;;;25528172;23;20460;-69
2022/11/11 18:46:44;;;;;;;0.20;0.00;;;19.80;99.90;;;;;;25526388;23;20365;-67
2022/11/11 18:56:48;;;;;;;0.20;0.00;;;19.60;99.90;;;;;;25504970;23;20393;-69
2022/11/11 19:06:53;;;;;;;0.20;0.00;;;19.60;99.90;;;;;;25527117;23;20381;-71
2022/11/11 19:16:57;;;;;;;0.20;0.00;;;19.80;99.90;;;;;;25501940;23;20377;-70
2022/11/11 19:27:02;;;;;;;0.20;0.00;;;19.90;99.90;;;;;;25524606;23;20378;-70
2022/11/11 19:37:08;;;;;;;0.20;0.00;;;20.10;99.90;;;;;;25499465;23;20369;-69
2022/11/11 19:47:14;;;;;;;0.20;0.00;;;20.00;99.90;;;;;;25526294;23;20381;-69
2022/11/11 19:57:18;;;;;;;0.20;0.00;;;19.90;99.90;;;;;;25525250;23;20373;-67
2022/11/11 20:07:23;;;;;;;0.20;0.00;;;19.90;99.90;;;;;;25526398;23;20384;-69
2022/11/11 20:17:27;;;;;;;0.20;0.10;;;19.90;99.90;;;;;;25502159;23;20381;-67
2022/11/11 20:27:32;;;;;;;0.20;0.00;;;19.80;99.90;;;;;;25499664;23;20397;-69
2022/11/11 20:37:36;;;;;;;0.20;0.00;;;19.80;99.90;;;;;;25525501;23;20380;-68
2022/11/11 20:47:41;;;;;;;0.20;0.00;;;19.90;99.90;;;;;;25501254;23;20378;-69
2022/11/11 20:57:45;;;;;;;0.20;0.00;;;19.80;99.90;;;;;;25523512;23;20373;-69
2022/11/11 21:07:50;;;;;;;0.20;0.00;;;19.70;99.90;;;;;;25525311;23;21304;-69
2022/11/11 21:17:54;;;;;;;0.20;0.00;;;19.80;99.90;;;;;;25531695;23;20805;-69
2022/11/11 21:28:04;;;;;;;0.20;0.00;;;19.70;99.90;;;;;;25535012;23;20365;-70
2022/11/11 21:38:08;;;;;;;0.20;0.10;;;19.60;99.90;;;;;;25511138;23;20369;-69
2022/11/11 21:48:15;;;;;;;0.20;0.00;;;19.60;99.90;;;;;;25538437;23;20401;-70
2022/11/11 21:58:21;;;;;;;0.20;0.00;;;19.60;99.90;;;;;;25535641;23;20365;-71
2022/11/11 22:08:27;;;;;;;0.20;0.00;;;19.40;99.90;;;;;;25513121;23;20377;-67
2022/11/11 22:18:32;;;;;;;0.20;0.00;;;19.20;99.90;;;;;;25510267;23;20737;-69
2022/11/11 22:28:38;;;;;;;0.20;0.00;;;19.10;99.90;;;;;;25533960;23;20416;-71
2022/11/11 22:38:42;;;;;;;0.20;0.00;;;19.10;99.90;;;;;;25536972;23;20390;-67
2022/11/11 22:48:52;;;;;;;0.20;0.10;;;19.10;99.90;;;;;;25536135;23;20389;-71
2022/11/11 22:58:56;;;;;;;0.20;0.00;;;19.20;99.90;;;;;;25535516;23;20369;-69
2022/11/11 23:09:02;;;;;;;0.20;0.00;;;19.00;99.90;;;;;;25509539;23;20373;-69
2022/11/11 23:19:07;;;;;;;0.20;0.00;;;19.00;99.90;;;;;;25508322;23;20365;-70
2022/11/11 23:29:12;;;;;;;0.20;0.00;;;18.70;99.90;;;;;;25509105;23;20409;-70
2022/11/11 23:39:16;;;;;;;0.20;0.00;;;18.70;99.90;;;;;;25534973;23;20372;-69
2022/11/11 23:49:21;;;;;;;0.20;0.10;;;18.70;99.90;;;;;;25535819;23;20560;-70
2022/11/11 23:59:24;;;;;;;0.20;0.00;;;18.60;99.90;;;;;;25506535;23;20373;-69
